Time;durP1;ratioP1;P1;durP2;ratioP2;P2;SDS_P1;SDS_P2;PMS_P1;PMS_P2;Temp;Humidity;BMP_temperature;BMP_pressure;BME280_temperature;BME280_humidity;BME280_pressure;Samples;Min_cycle;Max_cycle;Signal;HPM_P1;HPM_P2
2022/10/20 00:01:07;;;;;;;23.83;17.92;;;14.10;99.90;;;;;;4847963;29;20052;-58
2022/10/20 00:03:34;;;;;;;25.60;18.17;;;14.10;99.90;;;;;;4851439;29;20084;-55
2022/10/20 00:06:10;;;;;;;27.73;18.30;;;14.10;99.90;;;;;;4853560;29;20045;-57
2022/10/20 00:08:38;;;;;;;32.35;23.20;;;14.10;99.90;;;;;;4850824;29;20336;-56
2022/10/20 00:11:06;;;;;;;33.22;22.20;;;14.10;99.90;;;;;;4849776;29;20052;-58
2022/10/20 00:13:33;;;;;;;32.05;23.25;;;14.10;99.90;;;;;;4852014;29;20623;-54
2022/10/20 00:15:59;;;;;;;;;;;14.00;99.90;;;;;;4862043;29;20055;-57
2022/10/20 00:18:26;;;;;;;30.92;21.75;;;14.00;99.90;;;;;;4852259;29;19959;-57
2022/10/20 00:20:53;;;;;;;32.08;23.15;;;14.00;99.90;;;;;;4853475;29;20053;-58
2022/10/20 00:23:21;;;;;;;37.95;24.40;;;13.90;99.90;;;;;;4849725;29;20444;-56
2022/10/20 00:25:47;;;;;;;34.58;23.80;;;13.90;99.90;;;;;;4849508;29;20084;-56
2022/10/20 00:28:14;;;;;;;39.17;25.17;;;13.90;99.90;;;;;;4851145;29;20572;-56
2022/10/20 00:30:41;;;;;;;;;;;13.90;99.90;;;;;;4856248;29;20167;-58
2022/10/20 00:33:07;;;;;;;37.42;25.15;;;13.80;99.90;;;;;;4856720;29;19935;-58
2022/10/20 00:35:36;;;;;;;;;;;13.80;99.90;;;;;;4839164;29;20482;-57
2022/10/20 00:38:03;;;;;;;37.83;26.17;;;13.80;99.90;;;;;;4858705;29;19927;-55
2022/10/20 00:40:29;;;;;;;33.08;24.48;;;13.80;99.90;;;;;;4850415;29;20744;-55
2022/10/20 00:42:56;;;;;;;;;;;13.80;99.90;;;;;;4846462;29;20156;-57
2022/10/20 00:45:23;;;;;;;35.15;23.77;;;13.70;99.90;;;;;;4852013;29;19927;-55
2022/10/20 00:47:52;;;;;;;;;;;13.70;99.90;;;;;;4851560;29;20218;-57
2022/10/20 00:50:41;;;;;;;37.53;25.17;;;13.70;99.90;;;;;;4849496;29;19928;-55
2022/10/20 00:53:08;;;;;;;34.05;22.55;;;13.70;99.90;;;;;;4845788;29;20045;-55
2022/10/20 00:55:36;;;;;;;;;;;13.70;99.90;;;;;;4852840;29;20510;-56
2022/10/20 00:58:03;;;;;;;32.20;23.15;;;13.70;99.90;;;;;;4850779;29;20441;-56
2022/10/20 01:00:30;;;;;;;35.13;24.20;;;13.70;99.90;;;;;;4848330;29;20432;-57
2022/10/20 01:03:00;;;;;;;29.17;20.65;;;13.70;99.90;;;;;;4852825;29;20053;-57
2022/10/20 01:05:27;;;;;;;26.15;19.77;;;13.60;99.90;;;;;;4831769;29;20053;-56
2022/10/20 01:07:54;;;;;;;32.60;21.33;;;13.60;99.90;;;;;;4853186;29;20120;-55
2022/10/20 01:10:22;;;;;;;;;;;13.60;99.90;;;;;;4860368;29;20123;-54
2022/10/20 01:12:48;;;;;;;23.33;17.70;;;13.60;99.90;;;;;;4847410;29;19928;-56
2022/10/20 01:15:33;;;;;;;31.73;19.75;;;13.60;99.90;;;;;;4858059;29;20076;-56
2022/10/20 01:18:08;;;;;;;37.58;24.10;;;13.60;99.90;;;;;;4852447;29;20497;-59
2022/10/20 01:20:44;;;;;;;33.00;23.23;;;13.60;99.90;;;;;;4852803;29;20750;-55
2022/10/20 01:23:33;;;;;;;34.50;23.63;;;13.60;99.90;;;;;;4855984;29;20048;-59
2022/10/20 01:26:29;;;;;;;33.90;24.17;;;13.60;99.90;;;;;;4858040;29;20202;-58
2022/10/20 01:28:57;;;;;;;37.88;22.65;;;13.60;99.90;;;;;;4858308;29;20129;-54
2022/10/20 01:31:32;;;;;;;36.55;24.75;;;13.60;99.90;;;;;;4863430;29;20063;-57
2022/10/20 01:34:11;;;;;;;32.47;22.98;;;13.60;99.90;;;;;;4856056;29;20056;-58
2022/10/20 01:36:46;;;;;;;32.72;23.20;;;13.60;99.90;;;;;;4853426;29;20059;-56
2022/10/20 01:39:24;;;;;;;35.33;23.73;;;13.50;99.90;;;;;;4842849;29;20328;-57
2022/10/20 01:42:17;;;;;;;30.30;22.65;;;13.50;99.90;;;;;;4854807;29;20060;-56
2022/10/20 01:44:46;;;;;;;33.17;23.63;;;13.40;99.90;;;;;;4854000;29;20059;-56
2022/10/20 01:47:14;;;;;;;35.00;22.65;;;13.50;99.90;;;;;;4855667;29;20057;-55
2022/10/20 01:49:44;;;;;;;31.88;22.83;;;13.40;99.90;;;;;;4850779;29;20045;-57
2022/10/20 01:52:11;;;;;;;37.08;24.92;;;13.40;99.90;;;;;;4855430;29;20486;-56
2022/10/20 01:54:38;;;;;;;34.92;23.67;;;13.30;99.90;;;;;;4854475;29;20171;-57
2022/10/20 01:57:18;;;;;;;31.80;23.52;;;13.30;99.90;;;;;;4850355;29;20063;-58
2022/10/20 02:00:05;;;;;;;31.80;22.27;;;13.30;99.90;;;;;;4846582;29;20080;-57
2022/10/20 02:02:48;;;;;;;40.45;25.02;;;13.20;99.90;;;;;;4848158;29;20522;-59
2022/10/20 02:05:41;;;;;;;31.25;21.88;;;13.20;99.90;;;;;;4830787;29;20378;-56
2022/10/20 02:08:36;;;;;;;29.38;21.52;;;13.20;99.90;;;;;;4851848;29;20754;-54
2022/10/20 02:11:06;;;;;;;28.92;21.27;;;13.20;99.90;;;;;;4861383;29;20571;-56
2022/10/20 02:13:37;;;;;;;30.55;22.05;;;13.20;99.90;;;;;;4852950;29;20053;-56
2022/10/20 02:16:11;;;;;;;29.77;21.65;;;13.20;99.90;;;;;;4859614;29;20087;-59
2022/10/20 02:18:41;;;;;;;34.35;22.90;;;13.10;99.90;;;;;;4851099;29;20100;-57
2022/10/20 02:21:09;;;;;;;38.90;23.75;;;13.10;99.90;;;;;;4849496;29;20307;-58
2022/10/20 02:23:39;;;;;;;34.88;23.88;;;13.10;99.90;;;;;;4855242;29;20079;-56
2022/10/20 02:26:08;;;;;;;33.25;22.48;;;13.20;99.90;;;;;;4857878;29;20128;-60
2022/10/20 02:28:38;;;;;;;37.85;23.60;;;13.10;99.90;;;;;;4849842;29;20052;-58
2022/10/20 02:31:04;;;;;;;28.63;20.52;;;13.20;99.90;;;;;;4855274;29;20046;-55
2022/10/20 02:33:32;;;;;;;;;;;13.20;99.90;;;;;;4857479;29;20064;-54
2022/10/20 02:36:03;;;;;;;36.50;22.95;;;13.10;99.90;;;;;;4851126;29;19943;-58
2022/10/20 02:38:30;;;;;;;39.65;25.23;;;13.10;99.90;;;;;;4857817;29;20061;-59
2022/10/20 02:40:57;;;;;;;41.55;27.10;;;13.10;99.90;;;;;;4852527;29;20096;-60
2022/10/20 02:43:24;;;;;;;37.30;26.95;;;13.20;99.90;;;;;;4855340;29;20119;-57
2022/10/20 02:45:50;;;;;;;45.17;30.33;;;13.20;99.90;;;;;;4851221;29;20472;-56
2022/10/20 02:48:17;;;;;;;41.45;27.98;;;13.10;99.90;;;;;;4851168;29;20160;-57
2022/10/20 02:50:44;;;;;;;46.75;28.58;;;13.20;99.90;;;;;;4853268;29;20125;-55
2022/10/20 02:53:10;;;;;;;;;;;13.10;99.90;;;;;;4851336;29;20055;-59
2022/10/20 02:55:37;;;;;;;37.80;26.92;;;13.20;99.90;;;;;;4852499;29;19934;-58
2022/10/20 02:58:03;;;;;;;41.25;27.45;;;13.10;99.90;;;;;;4853562;29;20061;-58
2022/10/20 03:00:30;;;;;;;39.50;27.63;;;13.10;99.90;;;;;;4854749;29;20414;-55
2022/10/20 03:02:57;;;;;;;32.92;23.40;;;13.20;99.90;;;;;;4851522;29;20049;-59
2022/10/20 03:05:25;;;;;;;;;;;13.10;99.90;;;;;;4856861;29;20055;-58
2022/10/20 03:07:53;;;;;;;41.35;28.40;;;13.10;99.90;;;;;;4853715;29;20365;-56
2022/10/20 03:10:19;;;;;;;37.17;25.92;;;13.10;99.90;;;;;;4848951;29;20045;-57
2022/10/20 03:12:46;;;;;;;;;;;13.10;99.90;;;;;;4852619;29;20049;-57
2022/10/20 03:15:13;;;;;;;39.75;24.98;;;13.10;99.90;;;;;;4852469;29;20034;-61
2022/10/20 03:17:39;;;;;;;;;;;13.00;99.90;;;;;;4852295;29;20429;-58
2022/10/20 03:20:07;;;;;;;51.80;26.63;;;13.10;99.90;;;;;;4852496;29;19953;-57
2022/10/20 03:22:33;;;;;;;35.78;24.73;;;13.10;99.90;;;;;;4850940;29;20050;-57
2022/10/20 03:25:00;;;;;;;45.50;27.50;;;13.00;99.90;;;;;;4851323;29;20057;-59
2022/10/20 03:27:27;;;;;;;;;;;13.00;99.90;;;;;;4857390;29;20484;-55
2022/10/20 03:29:53;;;;;;;41.53;26.63;;;13.00;99.90;;;;;;4852408;29;19928;-57
2022/10/20 03:32:20;;;;;;;40.92;26.23;;;12.90;99.90;;;;;;4847160;29;20060;-57
2022/10/20 03:34:47;;;;;;;37.83;23.75;;;12.90;99.90;;;;;;4850315;29;20046;-58
2022/10/20 03:37:13;;;;;;;41.17;26.20;;;12.90;99.90;;;;;;4856507;29;20056;-60
2022/10/20 03:39:40;;;;;;;38.17;24.23;;;12.80;99.90;;;;;;4853301;29;20049;-59
2022/10/20 03:42:07;;;;;;;36.05;24.45;;;12.80;99.90;;;;;;4853883;29;20053;-58
2022/10/20 03:44:33;;;;;;;37.75;23.50;;;12.80;99.90;;;;;;4855926;29;20049;-57
2022/10/20 03:47:00;;;;;;;40.00;26.15;;;12.80;99.90;;;;;;4855094;29;20329;-55
2022/10/20 03:49:27;;;;;;;46.00;26.73;;;12.80;99.90;;;;;;4844567;29;20408;-55
2022/10/20 03:51:53;;;;;;;37.30;24.05;;;12.80;99.90;;;;;;4845995;29;20047;-57
2022/10/20 03:54:20;;;;;;;35.08;23.15;;;12.70;99.90;;;;;;4855691;29;20170;-57
2022/10/20 03:56:47;;;;;;;42.00;26.23;;;12.80;99.90;;;;;;4853580;29;20057;-56
2022/10/20 03:59:14;;;;;;;;;;;12.70;99.90;;;;;;4852897;29;20320;-57
2022/10/20 04:01:44;;;;;;;34.78;24.80;;;12.70;99.90;;;;;;4849513;29;20414;-58
2022/10/20 04:04:11;;;;;;;32.50;21.40;;;12.70;99.90;;;;;;4848979;29;20323;-59
2022/10/20 04:06:38;;;;;;;37.97;25.77;;;12.70;99.90;;;;;;4851088;29;20160;-57
2022/10/20 04:09:05;;;;;;;;;;;12.60;99.90;;;;;;4853489;29;20079;-56
2022/10/20 04:11:32;;;;;;;36.38;24.67;;;12.60;99.90;;;;;;4851796;29;20026;-54
2022/10/20 04:13:58;;;;;;;;;;;12.60;99.90;;;;;;4850334;29;20051;-56
2022/10/20 04:16:25;;;;;;;30.92;22.95;;;12.60;99.90;;;;;;4854561;29;20330;-53
2022/10/20 04:18:52;;;;;;;35.33;23.85;;;12.60;99.90;;;;;;4850450;29;20045;-60
2022/10/20 04:21:18;;;;;;;;;;;12.60;99.90;;;;;;4846083;29;20059;-58
2022/10/20 04:23:45;;;;;;;33.63;21.30;;;12.60;99.90;;;;;;4845154;29;20091;-58
2022/10/20 04:26:14;;;;;;;34.80;23.70;;;12.60;99.90;;;;;;4853485;29;20045;-58
2022/10/20 04:28:41;;;;;;;42.22;23.33;;;12.60;99.90;;;;;;4852190;29;20049;-58
2022/10/20 04:31:08;;;;;;;41.40;25.38;;;12.60;99.90;;;;;;4855455;29;20505;-60
2022/10/20 04:33:35;;;;;;;;;;;12.50;99.90;;;;;;4853421;29;20071;-57
2022/10/20 04:36:05;;;;;;;29.52;21.45;;;12.50;99.90;;;;;;4848954;29;19928;-55
2022/10/20 04:38:33;;;;;;;26.27;20.13;;;12.50;99.90;;;;;;4852937;29;20045;-61
2022/10/20 04:41:03;;;;;;;33.15;22.90;;;12.50;99.90;;;;;;4850169;29;20056;-57
2022/10/20 04:43:31;;;;;;;39.22;25.52;;;12.50;99.90;;;;;;4850604;29;20398;-60
2022/10/20 04:46:02;;;;;;;35.90;23.08;;;12.50;99.90;;;;;;4853882;29;20271;-54
2022/10/20 04:48:34;;;;;;;38.90;26.00;;;12.50;99.90;;;;;;4847027;29;20133;-57
2022/10/20 04:51:05;;;;;;;45.33;28.70;;;12.50;99.90;;;;;;4833768;29;20439;-52
2022/10/20 04:53:32;;;;;;;44.80;28.67;;;12.50;99.90;;;;;;4847709;29;20101;-56
2022/10/20 04:55:59;;;;;;;38.90;24.27;;;12.50;99.90;;;;;;4853948;29;20057;-57
2022/10/20 04:58:26;;;;;;;;;;;12.50;99.90;;;;;;4854224;29;20450;-56
2022/10/20 05:00:53;;;;;;;41.03;25.33;;;12.50;99.90;;;;;;4857312;29;19928;-56
2022/10/20 05:03:20;;;;;;;41.78;24.17;;;12.50;99.90;;;;;;4855161;29;20298;-56
2022/10/20 05:05:46;;;;;;;45.00;27.80;;;12.50;99.90;;;;;;4850671;29;20053;-57
2022/10/20 05:08:13;;;;;;;;;;;12.50;99.90;;;;;;4850949;29;20045;-54
2022/10/20 05:10:40;;;;;;;39.92;25.50;;;12.50;99.90;;;;;;4857842;29;20318;-54
2022/10/20 05:13:06;;;;;;;40.25;27.73;;;12.50;99.90;;;;;;4852876;29;20041;-56
2022/10/20 05:15:33;;;;;;;;;;;12.50;99.90;;;;;;4852606;29;20579;-56
2022/10/20 05:18:00;;;;;;;36.40;24.40;;;12.40;99.90;;;;;;4859637;29;19928;-54
2022/10/20 05:20:26;;;;;;;32.78;23.05;;;12.50;99.90;;;;;;4861613;29;20345;-55
2022/10/20 05:22:56;;;;;;;39.95;25.55;;;12.40;99.90;;;;;;4858735;29;20387;-56
2022/10/20 05:25:23;;;;;;;38.40;24.75;;;12.40;99.90;;;;;;4856219;29;20053;-56
2022/10/20 05:28:03;;;;;;;60.72;24.77;;;12.40;99.90;;;;;;4853098;29;20097;-54
2022/10/20 05:30:30;;;;;;;73.20;22.38;;;12.30;99.90;;;;;;4852589;29;20044;-55
2022/10/20 05:32:56;;;;;;;;;;;12.20;99.90;;;;;;4850396;29;20209;-55
2022/10/20 05:35:23;;;;;;;32.47;20.58;;;12.10;99.90;;;;;;4852115;29;20474;-56
2022/10/20 05:37:50;;;;;;;33.35;21.95;;;12.10;99.90;;;;;;4850608;29;20305;-61
2022/10/20 05:40:16;;;;;;;;;;;12.00;99.90;;;;;;4850823;29;20054;-58
2022/10/20 05:42:43;;;;;;;30.25;19.08;;;11.90;99.90;;;;;;4851651;29;20403;-57
2022/10/20 05:45:10;;;;;;;30.02;20.05;;;11.80;99.90;;;;;;4857308;29;20059;-59
2022/10/20 05:47:36;;;;;;;;;;;11.80;99.90;;;;;;4860976;29;20041;-55
2022/10/20 05:50:04;;;;;;;20.80;15.85;;;11.80;99.90;;;;;;4848390;29;19972;-55
2022/10/20 05:52:33;;;;;;;24.63;17.38;;;11.70;99.90;;;;;;4851489;29;20284;-57
2022/10/20 05:55:00;;;;;;;23.23;16.55;;;11.70;99.90;;;;;;4851558;29;20977;-56
2022/10/20 05:57:27;;;;;;;;;;;11.70;99.90;;;;;;4862327;29;20058;-56
2022/10/20 05:59:53;;;;;;;27.70;16.63;;;11.60;99.90;;;;;;4858575;29;19927;-54
2022/10/20 06:02:21;;;;;;;23.75;16.73;;;11.60;99.90;;;;;;4852186;29;20366;-55
2022/10/20 06:04:47;;;;;;;25.40;18.00;;;11.60;99.90;;;;;;4855289;29;20041;-58
2022/10/20 06:07:14;;;;;;;26.15;15.88;;;11.60;99.90;;;;;;4858000;29;20053;-54
2022/10/20 06:09:41;;;;;;;;;;;11.60;99.90;;;;;;4861338;29;20041;-57
2022/10/20 06:12:07;;;;;;;27.30;18.00;;;11.60;99.90;;;;;;4853645;29;20373;-57
2022/10/20 06:14:39;;;;;;;25.33;15.38;;;11.60;99.90;;;;;;4854037;29;20363;-58
2022/10/20 06:17:06;;;;;;;27.33;17.02;;;11.60;99.90;;;;;;4854888;29;20157;-55
2022/10/20 06:19:32;;;;;;;;;;;11.60;99.90;;;;;;4854120;29;20073;-56
2022/10/20 06:21:59;;;;;;;33.50;20.38;;;11.60;99.90;;;;;;4859470;29;19927;-54
2022/10/20 06:24:32;;;;;;;24.15;16.38;;;11.60;99.90;;;;;;4857162;29;20041;-56
2022/10/20 06:26:59;;;;;;;31.25;17.27;;;11.60;99.90;;;;;;4856293;29;20057;-56
2022/10/20 06:29:26;;;;;;;25.40;16.65;;;11.60;99.90;;;;;;4856800;29;20215;-53
2022/10/20 06:31:53;;;;;;;;;;;11.60;99.90;;;;;;4859733;29;20050;-55
2022/10/20 06:34:24;;;;;;;33.88;19.85;;;11.60;99.90;;;;;;4846886;29;20299;-59
2022/10/20 06:36:51;;;;;;;29.65;19.52;;;11.60;99.90;;;;;;4850319;29;20084;-56
2022/10/20 06:39:21;;;;;;;28.80;17.95;;;11.60;99.90;;;;;;4852357;29;20147;-55
2022/10/20 06:41:49;;;;;;;32.40;19.40;;;11.60;99.90;;;;;;4857778;29;20141;-54
2022/10/20 06:44:21;;;;;;;26.67;17.65;;;11.60;99.90;;;;;;4849853;29;20041;-55
2022/10/20 06:46:51;;;;;;;30.45;18.77;;;11.60;99.90;;;;;;4849675;29;20512;-55
2022/10/20 06:49:18;;;;;;;33.90;18.08;;;11.60;99.90;;;;;;4853665;29;20118;-56
2022/10/20 06:51:45;;;;;;;32.65;21.88;;;11.60;99.90;;;;;;4859890;29;20628;-56
2022/10/20 06:54:11;;;;;;;;;;;11.70;99.90;;;;;;4854831;29;20120;-56
2022/10/20 06:56:39;;;;;;;34.67;21.33;;;11.70;99.90;;;;;;4854396;29;20406;-53
2022/10/20 06:59:06;;;;;;;37.72;21.63;;;11.70;99.90;;;;;;4861996;29;20077;-54
2022/10/20 07:01:35;;;;;;;36.95;21.30;;;11.70;99.90;;;;;;4856071;29;20056;-52
2022/10/20 07:04:14;;;;;;;37.17;23.58;;;11.80;99.90;;;;;;4855185;29;20043;-57
2022/10/20 07:06:42;;;;;;;43.25;26.48;;;11.80;99.90;;;;;;4854304;29;20052;-59
2022/10/20 07:09:13;;;;;;;45.15;29.60;;;11.90;99.90;;;;;;4842386;29;20251;-59
2022/10/20 07:11:40;;;;;;;48.53;28.42;;;12.00;99.90;;;;;;4852852;29;20056;-58
2022/10/20 07:14:08;;;;;;;47.10;27.95;;;12.10;99.90;;;;;;4830839;29;20049;-55
2022/10/20 07:16:35;;;;;;;41.35;26.98;;;12.20;99.90;;;;;;4853383;29;20052;-54
2022/10/20 07:19:03;;;;;;;;;;;12.30;99.90;;;;;;4856897;29;20518;-57
2022/10/20 07:21:30;;;;;;;44.95;26.92;;;12.30;99.90;;;;;;4858467;29;19935;-54
2022/10/20 07:24:04;;;;;;;35.88;23.15;;;12.40;99.90;;;;;;4850746;29;20049;-58
2022/10/20 07:26:34;;;;;;;35.20;23.05;;;12.40;99.90;;;;;;4856765;29;20672;-57
2022/10/20 07:29:02;;;;;;;31.52;20.88;;;12.50;99.90;;;;;;4856110;29;20057;-57
2022/10/20 07:31:38;;;;;;;31.35;21.88;;;12.50;99.90;;;;;;4856608;29;20045;-56
2022/10/20 07:34:07;;;;;;;41.10;26.05;;;12.60;99.90;;;;;;4852816;29;20045;-57
2022/10/20 07:36:53;;;;;;;43.70;25.38;;;12.60;99.90;;;;;;4851286;29;20084;-55
2022/10/20 07:39:20;;;;;;;36.88;25.30;;;12.60;99.90;;;;;;4858522;29;20130;-58
2022/10/20 07:41:47;;;;;;;38.78;25.02;;;12.60;99.90;;;;;;4847880;29;20056;-57
2022/10/20 07:44:14;;;;;;;45.55;29.50;;;12.60;99.90;;;;;;4847658;29;20407;-57
2022/10/20 07:46:41;;;;;;;40.85;25.90;;;12.60;99.90;;;;;;4849884;29;20528;-54
2022/10/20 07:49:08;;;;;;;;;;;12.60;99.90;;;;;;4851658;29;20504;-57
2022/10/20 07:51:55;;;;;;;28.27;20.02;;;12.60;99.90;;;;;;4853453;29;19928;-58
2022/10/20 07:54:21;;;;;;;;;;;12.70;99.90;;;;;;4853031;29;20406;-57
2022/10/20 07:56:48;;;;;;;34.72;22.48;;;12.70;99.90;;;;;;4852666;29;20378;-59
2022/10/20 07:59:15;;;;;;;;;;;12.80;99.90;;;;;;4855396;29;20330;-58
2022/10/20 08:01:42;;;;;;;35.28;22.38;;;12.80;99.90;;;;;;4856963;29;19942;-59
2022/10/20 08:04:10;;;;;;;32.72;22.42;;;12.80;99.90;;;;;;4859662;29;20552;-56
2022/10/20 08:06:36;;;;;;;33.47;22.48;;;12.90;99.90;;;;;;4848624;29;20045;-57
2022/10/20 08:09:06;;;;;;;36.17;22.98;;;12.90;99.90;;;;;;4852183;29;20062;-58
2022/10/20 08:11:33;;;;;;;39.10;24.08;;;12.90;99.90;;;;;;4858976;29;20056;-54
2022/10/20 08:13:59;;;;;;;33.13;24.13;;;12.90;99.90;;;;;;4849911;29;20487;-58
2022/10/20 08:16:26;;;;;;;40.53;25.10;;;13.00;99.90;;;;;;4853076;29;20052;-57
2022/10/20 08:18:57;;;;;;;36.80;25.80;;;13.00;99.90;;;;;;4848374;29;20051;-56
2022/10/20 08:21:40;;;;;;;49.33;29.40;;;13.00;99.90;;;;;;4860578;29;20547;-57
2022/10/20 08:24:07;;;;;;;47.17;27.23;;;13.10;99.90;;;;;;4857942;29;20044;-57
2022/10/20 08:26:34;;;;;;;46.05;27.35;;;13.20;99.90;;;;;;4855224;29;20132;-57
2022/10/20 08:29:01;;;;;;;43.88;27.15;;;13.20;99.90;;;;;;4852093;29;20052;-59
2022/10/20 08:31:28;;;;;;;45.25;27.73;;;13.30;99.90;;;;;;4856210;29;20045;-57
2022/10/20 08:33:55;;;;;;;38.08;26.08;;;13.30;99.90;;;;;;4855642;29;20702;-56
2022/10/20 08:36:22;;;;;;;44.08;28.48;;;13.30;99.90;;;;;;4856466;29;20137;-59
2022/10/20 08:38:49;;;;;;;44.42;27.25;;;13.30;99.90;;;;;;4853460;29;20064;-55
2022/10/20 08:41:35;;;;;;;48.45;26.58;;;13.30;99.90;;;;;;4850878;29;20128;-57
2022/10/20 08:44:26;;;;;;;41.58;25.45;;;13.30;99.90;;;;;;4854729;29;20071;-55
2022/10/20 08:46:52;;;;;;;48.80;28.42;;;13.30;99.90;;;;;;4849263;29;20156;-55
2022/10/20 08:49:24;;;;;;;;;;;13.30;99.90;;;;;;4851047;29;20060;-55
2022/10/20 08:51:51;;;;;;;49.22;30.63;;;13.30;99.90;;;;;;4847961;29;20314;-54
2022/10/20 08:54:18;;;;;;;40.28;25.20;;;13.30;99.90;;;;;;4850740;29;20432;-57
2022/10/20 08:56:45;;;;;;;42.55;27.42;;;13.30;99.90;;;;;;4848204;29;20052;-58
2022/10/20 08:59:32;;;;;;;48.78;29.38;;;13.30;99.90;;;;;;4845004;29;20568;-58
2022/10/20 09:01:59;;;;;;;38.70;25.57;;;13.30;99.90;;;;;;4847736;29;20053;-56
2022/10/20 09:04:31;;;;;;;50.58;27.15;;;13.30;99.90;;;;;;4847535;29;20037;-56
2022/10/20 09:07:02;;;;;;;46.55;28.15;;;13.30;99.90;;;;;;4856356;29;20540;-57
2022/10/20 09:09:30;;;;;;;61.90;29.77;;;13.30;99.90;;;;;;4852479;29;20044;-55
2022/10/20 09:12:08;;;;;;;49.40;29.17;;;13.30;99.90;;;;;;4832902;29;20596;-58
2022/10/20 09:14:36;;;;;;;56.30;29.17;;;13.30;99.90;;;;;;4851536;29;20562;-57
2022/10/20 09:17:05;;;;;;;51.97;29.80;;;13.30;99.90;;;;;;4848115;29;20394;-57
2022/10/20 09:19:37;;;;;;;61.03;32.38;;;13.30;99.90;;;;;;4850142;29;20075;-57
2022/10/20 09:22:05;;;;;;;50.53;29.67;;;13.30;99.90;;;;;;4848606;29;20680;-56
2022/10/20 09:24:34;;;;;;;49.83;29.10;;;13.30;99.90;;;;;;4853510;29;20053;-58
2022/10/20 09:27:28;;;;;;;45.80;29.35;;;13.30;99.90;;;;;;4854427;29;20420;-57
2022/10/20 09:29:55;;;;;;;50.97;28.70;;;13.30;99.90;;;;;;4849520;29;20137;-56
2022/10/20 09:32:33;;;;;;;45.88;29.27;;;13.30;99.90;;;;;;4851462;29;20057;-56
2022/10/20 09:35:31;;;;;;;54.40;30.17;;;13.30;99.90;;;;;;4853235;29;20135;-56
2022/10/20 09:38:03;;;;;;;53.45;30.73;;;13.40;99.90;;;;;;4846908;29;20064;-56
2022/10/20 09:40:30;;;;;;;53.72;29.25;;;13.50;99.90;;;;;;4850518;29;20057;-56
2022/10/20 09:43:08;;;;;;;50.97;26.70;;;13.80;99.90;;;;;;4851889;29;20064;-55
2022/10/20 09:45:38;;;;;;;42.15;27.90;;;14.10;99.90;;;;;;4847193;29;20055;-57
2022/10/20 09:48:36;;;;;;;43.63;28.40;;;14.30;99.90;;;;;;4851884;29;20603;-54
2022/10/20 09:51:05;;;;;;;39.40;26.75;;;14.40;99.90;;;;;;4851648;29;20057;-56
2022/10/20 09:53:39;;;;;;;46.17;26.63;;;14.50;99.90;;;;;;4851914;29;20211;-53
2022/10/20 09:56:06;;;;;;;41.95;25.50;;;14.70;99.90;;;;;;4840422;29;20153;-55
2022/10/20 09:58:36;;;;;;;;;;;14.80;99.90;;;;;;4856023;29;20083;-56
2022/10/20 10:01:11;;;;;;;40.67;25.23;;;14.90;99.90;;;;;;4856654;29;19928;-55
2022/10/20 10:03:46;;;;;;;37.30;24.85;;;15.00;99.90;;;;;;4849294;29;20045;-56
2022/10/20 10:06:28;;;;;;;38.47;23.42;;;15.20;99.90;;;;;;4854364;29;20456;-56
2022/10/20 10:08:57;;;;;;;36.08;24.25;;;15.30;99.90;;;;;;4852466;29;20167;-54
2022/10/20 10:11:42;;;;;;;35.47;24.63;;;15.30;99.90;;;;;;4856066;29;20701;-54
2022/10/20 10:14:22;;;;;;;34.40;22.48;;;15.40;99.90;;;;;;4853703;29;20726;-55
2022/10/20 10:16:49;;;;;;;61.78;22.13;;;15.40;99.90;;;;;;4851752;29;20049;-55
2022/10/20 10:19:18;;;;;;;;;;;15.40;99.90;;;;;;4855909;29;20499;-55
2022/10/20 10:21:50;;;;;;;30.77;20.50;;;15.30;99.90;;;;;;4849225;29;20454;-55
2022/10/20 10:24:41;;;;;;;33.35;20.30;;;15.30;99.90;;;;;;4853518;29;20116;-55
2022/10/20 10:27:19;;;;;;;32.67;22.52;;;15.40;99.90;;;;;;4854567;29;20132;-55
2022/10/20 10:29:46;;;;;;;;;;;15.40;99.90;;;;;;4854323;29;20412;-55
2022/10/20 10:32:17;;;;;;;25.02;17.88;;;15.40;99.90;;;;;;4849721;29;19927;-55
2022/10/20 10:35:13;;;;;;;25.95;18.38;;;15.50;99.90;;;;;;4848137;29;20578;-54
2022/10/20 10:37:42;;;;;;;25.83;18.77;;;15.60;99.90;;;;;;4845752;29;20057;-56
2022/10/20 10:40:16;;;;;;;34.72;19.85;;;15.70;99.90;;;;;;4851702;29;20057;-58
2022/10/20 10:42:45;;;;;;;37.20;18.58;;;15.70;99.90;;;;;;4825262;29;20080;-57
2022/10/20 10:45:15;;;;;;;27.85;18.75;;;15.70;99.90;;;;;;4827815;29;20504;-55
2022/10/20 10:48:07;;;;;;;26.15;18.38;;;15.70;99.90;;;;;;4826788;29;20512;-54
2022/10/20 10:50:50;;;;;;;32.45;16.63;;;15.70;99.90;;;;;;4832634;29;20280;-55
2022/10/20 10:53:44;;;;;;;34.95;19.20;;;15.80;99.90;;;;;;4833978;29;20085;-56
2022/10/20 10:56:20;;;;;;;23.05;15.68;;;15.70;99.90;;;;;;4832805;29;20041;-58
2022/10/20 10:58:56;;;;;;;33.80;18.98;;;15.70;99.90;;;;;;4830756;29;20049;-57
2022/10/20 11:01:55;;;;;;;29.70;18.35;;;15.70;99.90;;;;;;4831734;29;20407;-56
2022/10/20 11:04:40;;;;;;;23.55;16.10;;;15.80;99.90;;;;;;4831530;29;20129;-59
2022/10/20 11:07:35;;;;;;;24.48;17.88;;;15.80;99.90;;;;;;4830749;29;20402;-53
2022/10/20 11:10:53;;;;;;;22.45;17.75;;;15.80;99.90;;;;;;4830754;29;20061;-57
2022/10/20 11:13:48;;;;;;;23.35;16.15;;;15.80;99.90;;;;;;4825968;29;20057;-56
2022/10/20 11:16:21;;;;;;;31.58;15.77;;;15.80;99.90;;;;;;4838351;29;20049;-54
2022/10/20 11:18:59;;;;;;;22.90;16.95;;;15.80;99.90;;;;;;4833932;29;20133;-57
2022/10/20 11:21:44;;;;;;;28.95;17.38;;;15.80;99.90;;;;;;4833872;29;20045;-54
2022/10/20 11:24:23;;;;;;;22.50;15.85;;;15.80;99.90;;;;;;4831420;29;20053;-55
2022/10/20 11:26:55;;;;;;;27.15;15.95;;;15.80;99.90;;;;;;4831823;29;20049;-58
2022/10/20 11:29:43;;;;;;;18.48;14.13;;;15.80;99.90;;;;;;4838627;29;20049;-57
2022/10/20 11:32:19;;;;;;;24.10;16.30;;;15.90;99.90;;;;;;4834715;29;20178;-58
2022/10/20 11:35:00;;;;;;;22.80;16.70;;;15.90;99.90;;;;;;4830507;29;20054;-57
2022/10/20 11:37:30;;;;;;;16.58;13.73;;;16.00;99.90;;;;;;4834605;29;20051;-56
2022/10/20 11:40:02;;;;;;;24.40;17.05;;;16.00;99.90;;;;;;4831481;29;20750;-56
2022/10/20 11:43:08;;;;;;;30.75;18.55;;;16.00;99.90;;;;;;4833626;29;21004;-54
2022/10/20 11:46:11;;;;;;;27.02;17.70;;;16.00;99.90;;;;;;4836126;29;20460;-58
2022/10/20 11:48:43;;;;;;;23.92;16.65;;;16.10;99.90;;;;;;4833228;29;20052;-56
2022/10/20 11:51:28;;;;;;;27.45;18.13;;;16.10;99.90;;;;;;4837497;29;20806;-58
2022/10/20 11:54:32;;;;;;;24.13;16.95;;;16.10;99.90;;;;;;4838855;29;20140;-59
2022/10/20 11:57:30;;;;;;;32.10;19.95;;;16.10;99.90;;;;;;4856069;29;20072;-58
2022/10/20 12:00:21;;;;;;;22.55;16.73;;;16.10;99.90;;;;;;4859370;29;20059;-56
2022/10/20 12:03:25;;;;;;;23.42;16.90;;;16.10;99.90;;;;;;4863774;29;20049;-55
2022/10/20 12:06:12;;;;;;;23.67;15.68;;;16.20;99.90;;;;;;4872268;29;20061;-55
2022/10/20 12:09:06;;;;;;;27.05;16.83;;;16.20;99.90;;;;;;4868845;29;20040;-62
2022/10/20 12:12:04;;;;;;;31.35;18.52;;;16.30;99.90;;;;;;4863985;29;20051;-56
2022/10/20 12:14:37;;;;;;;27.73;17.03;;;16.30;99.90;;;;;;4868896;29;20912;-56
2022/10/20 12:17:13;;;;;;;24.60;16.02;;;16.30;99.90;;;;;;4872401;29;20266;-56
2022/10/20 12:19:40;;;;;;;20.00;13.73;;;16.40;99.90;;;;;;4867363;29;20045;-57
2022/10/20 12:22:13;;;;;;;18.65;13.50;;;16.40;99.90;;;;;;4864618;29;20040;-55
2022/10/20 12:24:42;;;;;;;25.38;15.30;;;16.40;99.90;;;;;;4867059;29;20837;-56
2022/10/20 12:27:09;;;;;;;15.70;11.60;;;16.40;99.90;;;;;;4866035;29;20768;-56
2022/10/20 12:29:36;;;;;;;23.90;15.43;;;16.50;99.90;;;;;;4868423;29;20156;-55
2022/10/20 12:32:22;;;;;;;;;;;16.50;99.90;;;;;;4867494;29;20048;-56
2022/10/20 12:34:53;;;;;;;23.60;15.35;;;16.50;99.90;;;;;;4868352;29;19927;-55
2022/10/20 12:37:23;;;;;;;20.83;13.95;;;16.50;99.90;;;;;;4865496;29;21052;-57
2022/10/20 12:40:19;;;;;;;21.35;13.52;;;16.50;99.90;;;;;;4865891;29;20055;-56
2022/10/20 12:42:50;;;;;;;32.17;16.80;;;16.50;99.90;;;;;;4865793;29;20595;-56
2022/10/20 12:45:16;;;;;;;25.17;16.30;;;16.50;99.90;;;;;;4870661;29;20124;-56
2022/10/20 12:47:52;;;;;;;;;;;16.60;99.90;;;;;;4869374;29;20059;-55
2022/10/20 12:50:44;;;;;;;29.42;18.33;;;16.60;99.90;;;;;;4869515;29;19954;-56
2022/10/20 12:53:16;;;;;;;28.13;16.17;;;16.70;99.90;;;;;;4869010;29;20135;-55
2022/10/20 12:55:52;;;;;;;25.92;15.18;;;16.70;99.90;;;;;;4868203;29;20060;-57
2022/10/20 12:58:19;;;;;;;24.65;14.40;;;16.70;99.90;;;;;;4871661;29;20056;-55
2022/10/20 13:00:46;;;;;;;;;;;16.70;99.90;;;;;;4868108;29;20037;-55
2022/10/20 13:03:31;;;;;;;42.65;19.88;;;16.80;99.90;;;;;;4870764;29;19927;-56
2022/10/20 13:05:58;;;;;;;28.42;16.20;;;16.80;99.90;;;;;;4870609;29;20123;-55